Time;durP1;ratioP1;P1;durP2;ratioP2;P2;SDS_P1;SDS_P2;PMS_P1;PMS_P2;Temp;Humidity;BMP_temperature;BMP_pressure;BME280_temperature;BME280_humidity;BME280_pressure;Samples;Min_cycle;Max_cycle;Signal;HPM_P1;HPM_P2
2022/12/05 00:00:07;;;;;;;10.07;2.30;;;;;;;1.84;100.00;102079.69;10416233;28;20041;-81
2022/12/05 00:05:11;;;;;;;2.10;1.48;;;;;;;1.82;100.00;102080.34;10401573;28;20057;-83
2022/12/05 00:10:12;;;;;;;1.83;1.55;;;;;;;1.85;100.00;102075.50;10404421;28;20049;-81
2022/12/05 00:15:14;;;;;;;1.40;1.30;;;;;;;1.84;100.00;102084.78;10413997;28;20045;-82
2022/12/05 00:20:16;;;;;;;2.13;1.83;;;;;;;1.84;100.00;102084.78;10412325;28;20042;-82
2022/12/05 00:25:18;;;;;;;2.90;1.77;;;;;;;1.92;100.00;102089.59;10404115;28;20491;-83
2022/12/05 00:30:20;;;;;;;3.13;2.25;;;;;;;1.87;100.00;102085.03;10410734;28;20467;-83
2022/12/05 00:35:21;;;;;;;2.92;2.25;;;;;;;1.94;100.00;102080.44;10399688;28;20054;-82
2022/12/05 00:40:23;;;;;;;0.95;0.63;;;;;;;1.92;100.00;102071.78;10405339;28;20041;-84
2022/12/05 00:45:25;;;;;;;0.75;0.65;;;;;;;1.93;100.00;102074.47;10397220;28;20041;-82
2022/12/05 00:50:26;;;;;;;1.00;0.90;;;;;;;1.94;100.00;102075.34;10417316;28;20045;-82
2022/12/05 00:55:28;;;;;;;2.08;1.48;;;;;;;1.95;100.00;102077.13;10436461;28;20057;-83
2022/12/05 01:00:30;;;;;;;0.60;0.60;;;;;;;2.02;100.00;102079.41;10412902;28;20091;-82
2022/12/05 01:05:33;;;;;;;1.17;1.02;;;;;;;1.99;100.00;102081.69;10392351;28;20087;-82
2022/12/05 01:10:34;;;;;;;0.75;0.70;;;;;;;2.00;100.00;102086.00;10410086;28;20067;-83
2022/12/05 01:15:36;;;;;;;1.65;1.13;;;;;;;2.03;100.00;102088.81;10410899;28;20068;-83
2022/12/05 01:20:41;;;;;;;3.20;1.95;;;;;;;2.03;100.00;102098.97;10401025;28;20045;-83
2022/12/05 01:25:46;;;;;;;1.60;1.45;;;;;;;2.02;100.00;102100.59;10411553;28;20103;-83
2022/12/05 01:30:49;;;;;;;2.42;1.35;;;;;;;2.08;100.00;102115.47;10411625;28;20041;-83
2022/12/05 01:35:50;;;;;;;2.55;1.98;;;;;;;2.02;100.00;102112.44;10393202;28;20041;-83
2022/12/05 01:41:03;;;;;;;0.80;0.80;;;;;;;2.01;100.00;102119.16;10398745;28;20431;-83
2022/12/05 01:46:05;;;;;;;3.83;2.00;;;;;;;2.03;100.00;102121.84;10410683;28;20481;-82
2022/12/05 01:51:06;;;;;;;1.80;1.42;;;;;;;2.01;100.00;102128.44;10410824;28;20075;-83
2022/12/05 01:56:08;;;;;;;3.20;2.15;;;;;;;2.00;100.00;102139.38;10410526;28;20069;-83
2022/12/05 02:01:14;;;;;;;3.05;2.33;;;;;;;2.01;100.00;102143.69;10405445;28;20505;-82
2022/12/05 02:06:16;;;;;;;2.47;2.28;;;;;;;1.99;100.00;102147.75;10390136;28;20045;-83
2022/12/05 02:11:20;;;;;;;1.13;0.93;;;;;;;2.00;100.00;102165.72;10393952;28;20045;-83
2022/12/05 02:16:36;;;;;;;3.75;2.95;;;;;;;2.02;100.00;102160.72;10411656;28;20045;-83
2022/12/05 02:22:09;;;;;;;17.58;1.90;;;;;;;2.01;100.00;102164.03;10411059;28;20046;-83
2022/12/05 02:27:32;;;;;;;1.70;1.48;;;;;;;2.01;100.00;102174.22;10408502;28;20397;-83
2022/12/05 02:32:37;;;;;;;1.90;0.52;;;;;;;2.04;100.00;102174.47;10410585;28;20083;-83
2022/12/05 02:37:39;;;;;;;0.82;0.80;;;;;;;2.02;100.00;102178.53;10421443;28;20053;-83
2022/12/05 02:42:46;;;;;;;1.90;1.30;;;;;;;2.02;100.00;102178.53;10417929;28;20049;-82
2022/12/05 02:47:52;;;;;;;0.98;0.65;;;;;;;2.06;100.00;102205.97;10397211;28;20042;-82
2022/12/05 02:52:59;;;;;;;1.73;1.15;;;;;;;2.02;100.00;102206.50;10400919;28;20053;-83
2022/12/05 02:58:06;;;;;;;1.10;1.00;;;;;;;2.04;100.00;102215.16;10396881;28;20073;-83
2022/12/05 03:03:14;;;;;;;1.90;1.65;;;;;;;2.05;100.00;102221.97;10399338;28;20069;-83
2022/12/05 03:08:21;;;;;;;0.63;0.52;;;;;;;2.05;100.00;102221.97;10403163;28;20107;-83
2022/12/05 03:13:30;;;;;;;0.28;0.28;;;;;;;2.09;100.00;102226.56;10416071;28;20065;-83
2022/12/05 03:18:38;;;;;;;1.75;0.65;;;;;;;2.08;100.00;102237.50;10403410;28;20056;-83
2022/12/05 03:23:46;;;;;;;0.68;0.60;;;;;;;2.10;100.00;102235.97;10402990;28;20120;-82
2022/12/05 03:28:58;;;;;;;1.38;1.23;;;;;;;2.12;100.00;102242.09;10389621;28;20119;-83
2022/12/05 03:34:03;;;;;;;1.35;1.25;;;;;;;2.11;100.00;102242.84;10415150;28;20099;-83
2022/12/05 03:39:28;;;;;;;1.63;1.30;;;;;;;2.10;100.00;102248.69;10402907;28;20072;-83
2022/12/05 03:44:39;;;;;;;1.23;1.17;;;;;;;2.15;100.00;102254.16;10402271;28;20053;-82
2022/12/05 03:49:47;;;;;;;2.05;1.63;;;;;;;2.12;100.00;102254.78;10412759;28;20448;-82
2022/12/05 03:54:52;;;;;;;1.30;0.73;;;;;;;2.13;100.00;102256.53;10415381;28;20065;-83
2022/12/05 03:59:58;;;;;;;2.08;1.25;;;;;;;2.14;100.00;102263.41;10400599;28;20111;-83
2022/12/05 04:05:05;;;;;;;0.77;0.47;;;;;;;2.17;100.00;102273.84;10416326;28;20092;-83
2022/12/05 04:10:24;;;;;;;1.85;1.52;;;;;;;2.18;100.00;102275.63;10413930;28;20485;-83
2022/12/05 04:17:02;;;;;;;2.45;0.95;;;;;;;2.21;100.00;102280.09;10387415;28;20050;-83
2022/12/05 04:26:22;;;;;;;2.67;2.10;;;;;;;2.20;100.00;102289.34;10394370;28;20405;-83
2022/12/05 04:31:32;;;;;;;0.93;0.85;;;;;;;2.28;100.00;102299.25;10411133;28;20412;-83
2022/12/05 04:36:40;;;;;;;1.92;1.77;;;;;;;2.30;100.00;102297.72;10437771;28;20153;-82
2022/12/05 04:41:49;;;;;;;2.38;1.10;;;;;;;2.29;100.00;102298.50;10417559;28;20075;-83
2022/12/05 04:46:56;;;;;;;1.15;1.08;;;;;;;2.34;100.00;102309.97;10428084;28;20061;-82
2022/12/05 04:52:02;;;;;;;0.52;0.52;;;;;;;2.35;100.00;102317.69;10412299;28;20041;-83
2022/12/05 04:57:15;;;;;;;0.38;0.38;;;;;;;2.39;100.00;102321.38;10412799;28;20106;-83
2022/12/05 05:02:41;;;;;;;0.68;0.55;;;;;;;2.39;100.00;102321.38;10412093;28;20081;-83
2022/12/05 05:07:49;;;;;;;0.52;0.52;;;;;;;2.39;100.00;102323.94;10410889;28;20037;-83
2022/12/05 05:12:50;;;;;;;0.75;0.75;;;;;;;2.40;100.00;102333.34;10413884;28;20037;-83
2022/12/05 05:17:52;;;;;;;0.65;0.55;;;;;;;2.41;100.00;102324.94;10413355;28;20079;-83
2022/12/05 05:22:55;;;;;;;3.30;0.95;;;;;;;2.43;100.00;102331.03;10388364;28;20045;-83
2022/12/05 05:27:57;;;;;;;1.52;1.42;;;;;;;2.43;100.00;102343.75;10388407;28;20497;-83
2022/12/05 05:32:59;;;;;;;2.92;1.52;;;;;;;2.48;100.00;102351.75;10376882;28;20080;-84
2022/12/05 05:38:01;;;;;;;3.50;1.67;;;;;;;2.52;100.00;102359.78;10410272;28;20108;-83
2022/12/05 05:43:03;;;;;;;0.22;0.22;;;;;;;2.52;100.00;102359.78;10410399;28;20064;-83
2022/12/05 05:48:05;;;;;;;3.40;2.33;;;;;;;2.49;100.00;102362.09;10389266;28;20084;-83
2022/12/05 05:53:06;;;;;;;1.42;1.30;;;;;;;2.51;100.00;102368.16;10410175;28;20053;-83
2022/12/05 05:58:08;;;;;;;1.42;0.45;;;;;;;2.56;100.00;102365.13;10410711;28;20045;-83
2022/12/05 06:03:10;;;;;;;1.65;0.70;;;;;;;2.60;100.00;102367.16;10406212;28;20468;-84
2022/12/05 06:08:11;;;;;;;0.60;0.60;;;;;;;2.59;100.00;102380.63;10402797;28;20378;-83
2022/12/05 06:13:13;;;;;;;1.00;0.80;;;;;;;2.56;100.00;102380.41;10410088;28;20045;-83
2022/12/05 06:18:15;;;;;;;2.35;1.23;;;;;;;2.61;100.00;102381.66;10410190;28;20050;-84
2022/12/05 06:23:16;;;;;;;1.15;0.90;;;;;;;2.60;100.00;102383.31;10411041;28;20041;-83
2022/12/05 06:28:20;;;;;;;2.90;1.50;;;;;;;2.59;100.00;102383.19;10400163;28;20092;-83
2022/12/05 06:33:22;;;;;;;2.83;2.10;;;;;;;2.62;100.00;102383.44;10412191;28;20132;-83
2022/12/05 06:38:24;;;;;;;0.75;0.75;;;;;;;2.62;100.00;102386.00;10431247;28;20037;-83
2022/12/05 06:43:25;;;;;;;0.45;0.45;;;;;;;2.61;100.00;102386.75;10418039;28;20076;-83
2022/12/05 06:48:27;;;;;;;1.75;1.40;;;;;;;2.56;100.00;102388.91;10393266;28;20045;-83
2022/12/05 06:53:29;;;;;;;9.95;1.13;;;;;;;2.58;100.00;102396.66;10403521;28;20076;-83
2022/12/05 06:58:30;;;;;;;0.63;0.63;;;;;;;2.56;100.00;102400.75;10416854;28;20053;-83
2022/12/05 07:03:32;;;;;;;2.83;2.03;;;;;;;2.56;100.00;102405.84;10388735;28;20057;-83
2022/12/05 07:08:35;;;;;;;1.40;1.30;;;;;;;2.58;100.00;102406.84;10414158;28;20069;-83
2022/12/05 07:13:36;;;;;;;0.30;0.30;;;;;;;2.53;100.00;102404.81;10393333;28;20496;-83
2022/12/05 07:18:38;;;;;;;3.10;1.65;;;;;;;2.56;100.00;102416.91;10397567;28;20041;-83
2022/12/05 07:23:42;;;;;;;0.75;0.57;;;;;;;2.57;100.00;102417.81;10391107;28;20056;-84
2022/12/05 07:28:45;;;;;;;3.30;0.65;;;;;;;2.54;100.00;102429.50;10409952;28;20049;-84
2022/12/05 07:33:47;;;;;;;0.55;0.43;;;;;;;2.54;100.00;102434.59;10419540;28;20132;-83
2022/12/05 07:38:56;;;;;;;24.90;2.72;;;;;;;2.49;100.00;102435.88;10402951;28;20034;-83
2022/12/05 07:43:59;;;;;;;0.00;0.00;;;;;;;2.49;100.00;102438.41;10406203;28;20490;-84
2022/12/05 07:49:00;;;;;;;1.30;1.20;;;;;;;2.49;100.00;102458.75;10411499;28;20064;-84
2022/12/05 07:54:02;;;;;;;12.57;1.35;;;;;;;2.47;100.00;102462.81;10413585;28;20107;-83
2022/12/05 07:59:04;;;;;;;1.52;1.17;;;;;;;2.48;100.00;102469.69;10398065;28;20473;-84
2022/12/05 08:04:05;;;;;;;5.93;1.10;;;;;;;2.48;100.00;102464.63;10407161;28;20634;-84
2022/12/05 08:09:15;;;;;;;0.33;0.33;;;;;;;2.48;100.00;102474.78;10390885;28;20045;-84
2022/12/05 08:14:17;;;;;;;2.90;1.23;;;;;;;2.56;100.00;102469.44;10381975;28;20382;-84
2022/12/05 08:19:18;;;;;;;0.73;0.55;;;;;;;2.56;100.00;102483.06;10404822;28;20042;-84
2022/12/05 08:24:24;;;;;;;0.63;0.63;;;;;;;2.63;100.00;102489.56;10405934;28;20137;-84
2022/12/05 08:29:25;;;;;;;1.40;0.80;;;;;;;2.64;100.00;102497.31;10416877;28;20072;-83
2022/12/05 08:34:27;;;;;;;0.63;0.40;;;;;;;2.66;100.00;102499.97;10423247;28;20068;-83
2022/12/05 08:39:29;;;;;;;3.25;2.10;;;;;;;2.73;100.00;102502.25;10446991;28;20041;-83
2022/12/05 08:44:38;;;;;;;2.10;0.60;;;;;;;2.69;100.00;102501.13;10372812;28;20045;-83
2022/12/05 08:49:39;;;;;;;2.50;1.88;;;;;;;2.64;100.00;102509.16;10412709;28;20489;-81
2022/12/05 08:54:41;;;;;;;0.57;0.57;;;;;;;2.69;100.00;102508.75;10412913;28;20566;-84
2022/12/05 08:59:43;;;;;;;1.75;1.08;;;;;;;2.75;100.00;102504.97;10411759;28;20410;-83
2022/12/05 09:04:49;;;;;;;0.77;0.77;;;;;;;2.79;100.00;102523.13;10412069;28;20099;-84
2022/12/05 09:09:54;;;;;;;2.42;0.80;;;;;;;2.85;100.00;102516.03;10412311;28;20045;-83
2022/12/05 09:14:56;;;;;;;0.32;0.32;;;;;;;2.80;100.00;102522.38;10387479;28;20046;-83
2022/12/05 09:19:58;;;;;;;3.05;1.35;;;;;;;2.79;100.00;102529.91;10399495;28;20049;-84
2022/12/05 09:24:59;;;;;;;1.48;0.73;;;;;;;2.80;100.00;102535.09;10426041;28;20111;-84
2022/12/05 09:30:01;;;;;;;0.40;0.40;;;;;;;2.89;100.00;102544.28;10410496;28;20048;-84
2022/12/05 09:35:03;;;;;;;0.28;0.28;;;;;;;2.95;100.00;102539.69;10398595;28;20049;-83
2022/12/05 09:40:06;;;;;;;0.95;0.50;;;;;;;2.96;100.00;102546.56;10394083;28;20069;-82
2022/12/05 09:45:30;;;;;;;2.45;1.65;;;;;;;2.90;100.00;102551.16;10399108;28;20044;-83
2022/12/05 09:50:39;;;;;;;0.85;0.75;;;;;;;3.05;100.00;102554.97;10420424;28;20087;-83
2022/12/05 09:55:46;;;;;;;1.75;0.30;;;;;;;2.85;100.00;102559.31;10396787;28;20061;-83
2022/12/05 10:00:53;;;;;;;1.20;0.82;;;;;;;2.97;100.00;102566.19;10400446;28;20068;-82
2022/12/05 10:06:24;;;;;;;0.10;0.10;;;;;;;2.93;100.00;102566.72;10410581;28;20052;-82
2022/12/05 10:11:42;;;;;;;0.20;0.20;;;;;;;3.02;100.00;102549.63;10376069;28;20053;-83
2022/12/05 10:16:53;;;;;;;0.10;0.10;;;;;;;3.07;100.00;102550.91;10402517;28;20049;-83
2022/12/05 10:22:03;;;;;;;0.80;0.75;;;;;;;3.01;100.00;102547.88;10404913;28;20132;-83
2022/12/05 10:27:07;;;;;;;1.05;0.88;;;;;;;3.04;100.00;102550.66;10396699;28;20073;-83
2022/12/05 10:32:39;;;;;;;0.13;0.13;;;;;;;3.00;100.00;102544.41;10411726;28;20042;-83
2022/12/05 10:37:45;;;;;;;0.20;0.20;;;;;;;3.03;100.00;102538.69;10397227;28;20095;-83
2022/12/05 10:42:48;;;;;;;2.13;0.90;;;;;;;3.16;100.00;102533.81;10392484;28;20140;-83
2022/12/05 10:47:56;;;;;;;1.10;0.70;;;;;;;3.27;100.00;102523.63;10421033;28;20448;-83
2022/12/05 10:53:02;;;;;;;0.30;0.30;;;;;;;3.23;100.00;102521.63;10428602;28;20045;-83
2022/12/05 10:58:28;;;;;;;2.80;0.88;;;;;;;3.15;100.00;102518.44;10433343;28;20042;-82
2022/12/05 11:03:38;;;;;;;0.20;0.20;;;;;;;3.33;100.00;102513.94;10465183;28;20448;-82
2022/12/05 11:08:39;;;;;;;0.28;0.28;;;;;;;3.31;100.00;102515.50;10444985;28;20092;-82
2022/12/05 11:14:05;;;;;;;0.15;0.15;;;;;;;3.33;100.00;102513.94;10429497;28;20045;-78
2022/12/05 11:19:21;;;;;;;0.30;0.30;;;;;;;3.35;100.00;102512.41;10443007;28;20404;-79
2022/12/05 11:24:33;;;;;;;0.35;0.35;;;;;;;3.31;100.00;102505.31;10420718;28;20037;-78
2022/12/05 11:29:37;;;;;;;1.23;0.73;;;;;;;3.39;100.00;102499.16;10419644;28;20038;-78
2022/12/05 11:34:46;;;;;;;0.30;0.30;;;;;;;3.42;100.00;102488.34;10420599;28;20492;-79
2022/12/05 11:39:48;;;;;;;0.98;0.55;;;;;;;3.39;100.00;102488.97;10435505;28;20045;-80
2022/12/05 11:45:44;;;;;;;0.30;0.30;;;;;;;3.46;100.00;102488.69;10419438;28;20049;-80
2022/12/05 11:51:14;;;;;;;0.17;0.17;;;;;;;3.46;100.00;102486.13;10418730;28;20446;-80
2022/12/05 11:57:04;;;;;;;0.75;0.28;;;;;;;3.49;100.00;102480.41;10418725;28;20073;-80
2022/12/05 12:02:35;;;;;;;4.03;1.00;;;;;;;3.52;100.00;102480.66;10410466;28;20061;-80
2022/12/05 12:07:43;;;;;;;;;;;;;;;3.62;100.00;102467.88;10419651;28;20054;-79
2022/12/05 12:13:18;;;;;;;1.23;0.82;;;;;;;3.59;100.00;102472.72;10434538;28;20024;-79
2022/12/05 12:24:56;;;;;;;2.08;0.82;;;;;;;3.63;100.00;102463.66;10417067;28;20493;-81
2022/12/05 12:30:01;;;;;;;1.35;1.20;;;;;;;3.59;100.00;102456.56;10418165;28;20037;-79
2022/12/05 12:35:29;;;;;;;0.38;0.17;;;;;;;3.68;100.00;102457.28;10416539;28;20047;-79
2022/12/05 12:40:48;;;;;;;0.98;0.75;;;;;;;3.63;100.00;102445.81;10418175;28;20037;-80
2022/12/05 12:46:15;;;;;;;1.30;1.20;;;;;;;3.64;100.00;102445.97;10433574;28;20045;-79
2022/12/05 12:51:17;;;;;;;0.10;0.10;;;;;;;3.59;100.00;102431.06;10416489;28;20045;-80
2022/12/05 12:56:27;;;;;;;0.03;0.03;;;;;;;3.69;100.00;102436.09;10416330;28;20123;-80
2022/12/05 13:01:39;;;;;;;0.10;0.10;;;;;;;3.67;100.00;102427.47;10417331;28;20046;-80
2022/12/05 13:06:48;;;;;;;0.90;0.43;;;;;;;3.66;100.00;102418.03;10417768;28;20373;-80
2022/12/05 13:11:53;;;;;;;0.75;0.52;;;;;;;3.65;100.00;102416.25;10416961;28;20033;-80
2022/12/05 13:16:57;;;;;;;0.50;0.50;;;;;;;3.65;100.00;102408.59;10416765;28;20508;-80
2022/12/05 13:22:25;;;;;;;0.88;0.50;;;;;;;3.66;100.00;102410.38;10415412;28;20042;-80
2022/12/05 13:27:27;;;;;;;0.77;0.60;;;;;;;3.68;100.00;102410.50;10413068;28;20049;-82
2022/12/05 13:32:35;;;;;;;1.23;0.50;;;;;;;3.73;100.00;102402.44;10414756;28;20036;-81
2022/12/05 13:43:09;;;;;;;0.22;0.15;;;;;;;3.63;100.00;102399.94;10425017;28;20057;-82
2022/12/05 13:48:21;;;;;;;0.35;0.17;;;;;;;3.49;100.00;102399.75;10394451;28;20057;-82
2022/12/05 13:53:42;;;;;;;0.45;0.45;;;;;;;3.46;100.00;102399.50;10426068;28;20099;-82
2022/12/05 13:58:50;;;;;;;1.58;0.85;;;;;;;3.41;100.00;102395.72;10408573;28;20041;-82
2022/12/05 14:04:02;;;;;;;6.40;0.40;;;;;;;3.43;100.00;102406.91;10422175;28;20049;-82
2022/12/05 14:09:16;;;;;;;0.73;0.55;;;;;;;3.47;100.00;102401.28;10457646;28;20083;-83
2022/12/05 14:14:54;;;;;;;0.98;0.35;;;;;;;3.38;100.00;102405.69;10435808;28;20046;-83
2022/12/05 14:20:14;;;;;;;0.17;0.10;;;;;;;3.40;100.00;102403.25;10415345;28;20034;-82
2022/12/05 14:25:32;;;;;;;0.50;0.43;;;;;;;3.43;100.00;102404.38;10412681;28;20049;-83
2022/12/05 14:31:13;;;;;;;6.65;2.72;;;;;;;3.49;100.00;102417.59;10410395;28;20088;-83
2022/12/05 14:36:18;;;;;;;0.22;0.08;;;;;;;3.48;100.00;102418.34;10425273;28;20485;-83
2022/12/05 14:41:30;;;;;;;0.40;0.40;;;;;;;3.47;100.00;102423.34;10395851;28;20041;-82
2022/12/05 14:46:32;;;;;;;1.35;1.25;;;;;;;3.36;100.00;102422.50;10421471;28;20049;-82
2022/12/05 14:51:34;;;;;;;4.18;1.10;;;;;;;3.41;100.00;102428.84;10425387;28;20056;-82
2022/12/05 14:56:42;;;;;;;0.95;0.50;;;;;;;3.41;100.00;102425.41;10422201;28;20497;-82
2022/12/05 15:01:50;;;;;;;0.10;0.10;;;;;;;3.57;100.00;102433.50;10431352;28;20107;-82
2022/12/05 15:07:01;;;;;;;0.93;0.93;;;;;;;3.59;100.00;102437.03;10416179;28;20064;-82
2022/12/05 15:12:06;;;;;;;0.45;0.32;;;;;;;3.57;100.00;102438.59;10412024;28;20041;-82
2022/12/05 15:17:17;;;;;;;0.15;0.15;;;;;;;3.54;100.00;102440.03;10434206;28;20063;-83
2022/12/05 15:22:22;;;;;;;0.20;0.20;;;;;;;3.66;100.00;102458.81;10431314;28;20042;-83
2022/12/05 15:27:23;;;;;;;0.05;0.05;;;;;;;3.64;100.00;102460.34;10425273;28;20148;-83
2022/12/05 15:32:26;;;;;;;0.73;0.57;;;;;;;3.62;100.00;102460.25;10419783;28;20049;-83
2022/12/05 15:37:34;;;;;;;0.00;0.00;;;;;;;3.62;100.00;102469.53;10413990;28;20049;-83
2022/12/05 15:42:41;;;;;;;0.20;0.20;;;;;;;3.60;100.00;102478.72;10424208;28;20041;-83
2022/12/05 15:48:06;;;;;;;0.00;0.00;;;;;;;3.62;100.00;102482.25;10446195;28;20540;-84
2022/12/05 15:53:16;;;;;;;0.00;0.00;;;;;;;3.63;100.00;102490.06;10430899;28;20045;-83
2022/12/05 15:58:31;;;;;;;0.00;0.00;;;;;;;3.65;100.00;102495.28;10426486;28;20049;-83
2022/12/05 16:03:38;;;;;;;1.08;0.47;;;;;;;3.64;100.00;102501.13;10421744;28;20053;-84
2022/12/05 16:08:45;;;;;;;0.10;0.10;;;;;;;3.63;100.00;102504.44;10446244;28;20481;-84
2022/12/05 16:13:55;;;;;;;0.00;0.00;;;;;;;3.62;100.00;102505.22;10409976;28;20058;-84
2022/12/05 16:19:03;;;;;;;0.20;0.20;;;;;;;3.64;100.00;102521.53;10421847;28;20096;-84
2022/12/05 16:24:12;;;;;;;0.45;0.28;;;;;;;3.66;100.00;102520.00;10421824;28;20512;-84
2022/12/05 16:29:31;;;;;;;0.08;0.08;;;;;;;3.68;100.00;102525.22;10413708;28;20050;-84
2022/12/05 16:34:33;;;;;;;0.00;0.00;;;;;;;3.61;100.00;102528.94;10439710;28;20060;-84
2022/12/05 16:39:35;;;;;;;0.15;0.15;;;;;;;3.60;100.00;102534.81;10430378;28;20515;-84
2022/12/05 16:44:45;;;;;;;0.90;0.85;;;;;;;3.62;100.00;102543.44;10424306;28;20129;-85
2022/12/05 16:49:48;;;;;;;0.10;0.10;;;;;;;3.59;100.00;102543.22;10422653;28;20080;-84
2022/12/05 16:54:51;;;;;;;0.22;0.20;;;;;;;3.59;100.00;102549.19;10442303;28;20049;-84
2022/12/05 16:59:52;;;;;;;0.05;0.05;;;;;;;3.61;100.00;102552.75;10439204;28;20049;-85
2022/12/05 17:04:54;;;;;;;0.52;0.32;;;;;;;3.62;100.00;102556.19;10423534;28;20088;-84
2022/12/05 17:09:56;;;;;;;0.20;0.15;;;;;;;3.66;100.00;102563.31;10424301;28;20099;-84
2022/12/05 17:14:58;;;;;;;0.52;0.30;;;;;;;3.73;100.00;102567.25;10425611;28;20052;-84
2022/12/05 17:20:01;;;;;;;0.00;0.00;;;;;;;3.62;100.00;102580.03;10417617;28;20485;-84
2022/12/05 17:25:30;;;;;;;0.40;0.38;;;;;;;3.60;100.00;102570.47;10419340;28;20146;-84
2022/12/05 17:30:33;;;;;;;0.00;0.00;;;;;;;3.63;100.00;102576.72;10443728;28;20044;-84
2022/12/05 17:35:35;;;;;;;0.10;0.10;;;;;;;3.59;100.00;102581.44;10428247;28;20396;-84
2022/12/05 17:40:37;;;;;;;0.00;0.00;;;;;;;3.58;100.00;102582.19;10407257;28;20049;-84
2022/12/05 17:45:40;;;;;;;0.00;0.00;;;;;;;3.56;100.00;102583.72;10408095;28;20044;-84
2022/12/05 17:50:45;;;;;;;0.47;0.32;;;;;;;3.58;100.00;102583.06;10414127;28;20041;-84
2022/12/05 17:55:47;;;;;;;0.57;0.43;;;;;;;3.59;100.00;102589.97;10427794;28;20044;-84
2022/12/05 18:00:49;;;;;;;0.20;0.20;;;;;;;3.61;100.00;102600.31;10422958;28;20052;-84
2022/12/05 18:05:51;;;;;;;0.35;0.32;;;;;;;3.58;100.00;102603.47;10417883;28;20404;-83
2022/12/05 18:10:54;;;;;;;0.25;0.25;;;;;;;3.55;100.00;102612.53;10418066;28;20045;-84
2022/12/05 18:15:57;;;;;;;0.00;0.00;;;;;;;3.52;100.00;102617.38;10412354;28;20477;-84
2022/12/05 18:21:11;;;;;;;0.00;0.00;;;;;;;3.54;100.00;102615.88;10424377;28;20526;-84
2022/12/05 18:26:12;;;;;;;0.22;0.22;;;;;;;3.59;100.00;102615.44;10423986;28;20489;-84
2022/12/05 18:31:16;;;;;;;0.22;0.22;;;;;;;3.55;100.00;102617.63;10405210;28;20072;-84
2022/12/05 18:36:20;;;;;;;0.90;0.65;;;;;;;3.61;100.00;102631.78;10432166;28;20488;-84
2022/12/05 18:41:26;;;;;;;0.10;0.10;;;;;;;3.64;100.00;102636.22;10425088;28;20076;-84
2022/12/05 18:46:27;;;;;;;0.00;0.00;;;;;;;3.58;100.00;102639.16;10413069;28;20124;-85
2022/12/05 18:51:30;;;;;;;0.10;0.10;;;;;;;3.62;100.00;102645.38;10422536;28;20439;-85
2022/12/05 18:56:34;;;;;;;0.38;0.38;;;;;;;3.59;100.00;102647.72;10417978;28;20056;-85
2022/12/05 19:01:39;;;;;;;0.00;0.00;;;;;;;3.59;100.00;102660.44;10408323;28;20053;-85
2022/12/05 19:06:46;;;;;;;0.00;0.00;;;;;;;3.59;100.00;102660.44;10417613;28;20045;-85
2022/12/05 19:11:55;;;;;;;0.05;0.05;;;;;;;3.59;100.00;102660.44;10413609;28;20077;-86
2022/12/05 19:16:58;;;;;;;0.35;0.35;;;;;;;3.60;100.00;102663.13;10421149;28;20060;-86
2022/12/05 19:22:01;;;;;;;0.10;0.10;;;;;;;3.69;100.00;102657.88;10436475;28;20041;-84
2022/12/05 19:27:03;;;;;;;0.00;0.00;;;;;;;3.63;100.00;102667.56;10463832;28;20488;-85
2022/12/05 19:32:04;;;;;;;0.00;0.00;;;;;;;3.64;100.00;102671.91;10434168;28;20056;-85
2022/12/05 19:37:06;;;;;;;0.10;0.10;;;;;;;3.66;100.00;102672.94;10404376;28;20489;-85
2022/12/05 19:42:08;;;;;;;0.30;0.30;;;;;;;3.70;100.00;102669.84;10398790;28;20366;-85
2022/12/05 19:47:09;;;;;;;0.00;0.00;;;;;;;3.63;100.00;102673.56;10406478;28;20056;-85
2022/12/05 19:52:12;;;;;;;0.20;0.17;;;;;;;3.64;100.00;102677.91;10425151;28;20041;-86
2022/12/05 19:57:13;;;;;;;0.38;0.20;;;;;;;3.62;100.00;102681.06;10394280;28;20046;-86
2022/12/05 20:02:15;;;;;;;1.45;0.68;;;;;;;3.65;100.00;102681.34;10399828;28;20390;-85
2022/12/05 20:07:17;;;;;;;0.00;0.00;;;;;;;3.61;100.00;102684.41;10421213;28;20076;-85
2022/12/05 20:12:19;;;;;;;0.00;0.00;;;;;;;3.65;100.00;102681.34;10403337;28;20687;-85
2022/12/05 20:17:21;;;;;;;0.25;0.25;;;;;;;3.69;100.00;102683.38;10415324;28;20506;-86
2022/12/05 20:22:24;;;;;;;0.20;0.20;;;;;;;3.68;100.00;102686.72;10428341;28;20029;-86
2022/12/05 20:27:26;;;;;;;0.05;0.05;;;;;;;3.72;100.00;102683.63;10419156;28;20042;-86
2022/12/05 20:32:28;;;;;;;0.10;0.10;;;;;;;3.71;100.00;102686.06;10431879;28;20029;-86
2022/12/05 20:37:29;;;;;;;0.00;0.00;;;;;;;3.67;100.00;102684.00;10397077;28;20061;-86
2022/12/05 20:42:35;;;;;;;0.20;0.20;;;;;;;3.62;100.00;102681.06;10410777;28;20092;-85
2022/12/05 20:47:44;;;;;;;0.22;0.15;;;;;;;3.70;100.00;102690.25;10405077;28;20037;-85
2022/12/05 20:52:45;;;;;;;0.00;0.00;;;;;;;3.68;100.00;102681.59;10412547;28;20041;-86
2022/12/05 20:57:47;;;;;;;0.10;0.10;;;;;;;3.66;100.00;102688.22;10426903;28;20065;-86
2022/12/05 21:02:49;;;;;;;0.32;0.10;;;;;;;3.62;100.00;102681.97;10395208;28;20050;-86
2022/12/05 21:07:51;;;;;;;0.35;0.25;;;;;;;3.61;100.00;102676.78;10394835;28;20544;-86
2022/12/05 21:12:52;;;;;;;0.13;0.08;;;;;;;3.60;100.00;102674.97;10428642;28;20045;-86
2022/12/05 21:17:54;;;;;;;0.10;0.10;;;;;;;3.58;100.00;102671.41;10397919;28;20045;-86
2022/12/05 21:22:56;;;;;;;0.90;0.73;;;;;;;3.54;100.00;102667.72;10406486;28;20080;-86
2022/12/05 21:28:01;;;;;;;0.00;0.00;;;;;;;3.53;100.00;102665.03;10413765;28;20041;-86
2022/12/05 21:33:04;;;;;;;0.52;0.25;;;;;;;3.52;100.00;102668.34;10406653;28;20048;-85
2022/12/05 21:38:06;;;;;;;0.00;0.00;;;;;;;3.53;100.00;102675.25;10418537;28;20045;-85
2022/12/05 21:43:07;;;;;;;0.00;0.00;;;;;;;3.53;100.00;102665.03;10424903;28;20099;-87
2022/12/05 21:48:09;;;;;;;1.10;0.80;;;;;;;3.50;100.00;102670.75;10393115;28;20468;-85
2022/12/05 21:53:11;;;;;;;0.00;0.00;;;;;;;3.54;100.00;102666.84;10411365;28;20129;-86
2022/12/05 21:58:16;;;;;;;0.57;0.50;;;;;;;3.52;100.00;102670.91;10437482;28;20053;-86
2022/12/05 22:03:18;;;;;;;0.25;0.25;;;;;;;3.49;100.00;102672.41;10420554;28;20041;-86
2022/12/05 22:08:20;;;;;;;0.10;0.10;;;;;;;3.49;100.00;102674.09;10430890;28;20091;-86
2022/12/05 22:13:21;;;;;;;0.63;0.13;;;;;;;3.49;100.00;102679.19;10425847;28;20038;-85
2022/12/05 22:18:24;;;;;;;0.05;0.05;;;;;;;3.47;100.00;102686.69;10409060;28;20038;-86
2022/12/05 22:23:26;;;;;;;1.55;0.55;;;;;;;3.47;100.00;102686.69;10412208;28;20037;-87
2022/12/05 22:28:28;;;;;;;0.00;0.00;;;;;;;3.46;100.00;102690.00;10411981;28;20041;-86
2022/12/05 22:33:31;;;;;;;0.10;0.10;;;;;;;3.48;100.00;102679.94;10394982;28;20103;-81
2022/12/05 22:38:38;;;;;;;0.08;0.08;;;;;;;3.47;100.00;102680.72;10387220;28;20054;-80
2022/12/05 22:43:41;;;;;;;0.00;0.00;;;;;;;3.47;100.00;102684.13;10386457;28;20136;-80
2022/12/05 22:48:44;;;;;;;0.60;0.43;;;;;;;3.46;100.00;102677.25;10387570;28;20485;-80
2022/12/05 22:53:55;;;;;;;0.73;0.35;;;;;;;3.45;100.00;102692.41;10386044;28;20099;-80
2022/12/05 22:58:58;;;;;;;0.55;0.22;;;;;;;3.53;100.00;102688.84;10387155;28;20046;-81
2022/12/05 23:04:03;;;;;;;0.00;0.00;;;;;;;3.51;100.00;102692.03;10386995;28;20042;-80
2022/12/05 23:09:08;;;;;;;0.17;0.13;;;;;;;3.48;100.00;102688.47;10402257;28;20042;-80
2022/12/05 23:14:10;;;;;;;0.20;0.20;;;;;;;3.54;100.00;102682.13;10385622;28;20050;-80
2022/12/05 23:19:12;;;;;;;0.20;0.15;;;;;;;3.50;100.00;102678.41;10382739;28;20046;-80
2022/12/05 23:24:13;;;;;;;1.23;0.38;;;;;;;3.52;100.00;102673.44;10379196;28;20041;-80
2022/12/05 23:29:15;;;;;;;0.00;0.00;;;;;;;3.44;100.00;102671.16;10379096;28;20104;-80
2022/12/05 23:34:16;;;;;;;0.00;0.00;;;;;;;3.46;100.00;102671.28;10378896;28;20058;-80
2022/12/05 23:39:18;;;;;;;0.00;0.00;;;;;;;3.48;100.00;102668.09;10395120;28;20057;-80
2022/12/05 23:44:21;;;;;;;0.40;0.32;;;;;;;3.51;100.00;102674.22;10378753;28;20057;-80